French Lick, Indiana
Current Conditions -  °F | °C
As of 1:15 AM on Monday 22 Dec 2014 (Local Time) from KHNB Reporting Station
Clear Clear  
Wind Chill: -2°   Ceiling: Unl
Heat Index:   Visibility: 10mi
Dew Point: -3°   Wind: 6mph
Humidity: 75%   Direction: 100°E
Pressure: 30.01"   Gusts: NA
Location:  38.55°N, 86.62°W
Report Text: KHNB 220615Z AUTO 10005KT 10SM CLR 01/M03 A3001 RMK AO1
Loading
Personal Weather Stations






























Interactive Weather Map New forecast layout! Learn more

10-Day Weather Forecast

Advertisements
Track Severe Weather on mobile